Time;durP1;ratioP1;P1;durP2;ratioP2;P2;SDS_P1;SDS_P2;PMS_P1;PMS_P2;Temp;Humidity;BMP_temperature;BMP_pressure;BME280_temperature;BME280_humidity;BME280_pressure;Samples;Min_cycle;Max_cycle;Signal;HPM_P1;HPM_P2
2022/04/15 00:00:22;;;;;;;7.07;3.13;;;14.80;96.70;;;;;;5084155;28;20064;-79
2022/04/15 00:02:51;;;;;;;4.60;2.90;;;14.80;96.70;;;;;;5077444;28;20098;-80
2022/04/15 00:05:40;;;;;;;4.15;3.00;;;14.90;96.70;;;;;;5085549;28;20046;-79
2022/04/15 00:08:09;;;;;;;5.80;3.13;;;14.80;96.70;;;;;;5075331;28;20058;-80
2022/04/15 00:10:45;;;;;;;6.22;2.80;;;14.80;96.70;;;;;;5084090;28;20093;-80
2022/04/15 00:13:19;;;;;;;5.68;3.13;;;14.80;96.70;;;;;;5070644;28;20106;-79
2022/04/15 00:15:49;;;;;;;5.50;3.00;;;14.90;96.70;;;;;;5079613;28;20075;-80
2022/04/15 00:18:18;;;;;;;6.63;3.13;;;14.80;96.70;;;;;;5080772;28;20059;-79
2022/04/15 00:20:46;;;;;;;6.80;3.10;;;14.60;96.70;;;;;;5085218;28;20211;-79
2022/04/15 00:23:14;;;;;;;6.03;2.75;;;14.60;96.70;;;;;;5056599;28;20056;-80
2022/04/15 00:25:42;;;;;;;5.25;2.38;;;14.60;96.70;;;;;;5056856;28;20060;-80
2022/04/15 00:28:10;;;;;;;5.13;2.80;;;14.50;96.70;;;;;;5081586;28;20055;-76
2022/04/15 00:30:39;;;;;;;5.90;3.75;;;14.50;96.70;;;;;;5079430;28;20087;-77
2022/04/15 00:33:08;;;;;;;6.72;4.35;;;14.50;96.70;;;;;;5084901;28;20052;-76
2022/04/15 00:35:36;;;;;;;8.18;5.10;;;14.40;96.70;;;;;;5062633;28;20052;-76
2022/04/15 00:38:05;;;;;;;6.68;3.83;;;14.50;96.70;;;;;;5085864;28;20048;-76
2022/04/15 00:40:33;;;;;;;6.00;3.88;;;14.50;96.70;;;;;;5082824;28;20058;-76
2022/04/15 00:43:02;;;;;;;8.05;4.88;;;14.40;96.70;;;;;;5083754;28;20178;-76
2022/04/15 00:45:30;;;;;;;5.63;4.50;;;14.50;96.70;;;;;;5082324;28;20055;-75
2022/04/15 00:48:00;;;;;;;8.90;4.97;;;14.50;96.70;;;;;;5082597;28;20097;-76
2022/04/15 00:50:31;;;;;;;8.30;5.43;;;14.30;96.70;;;;;;5073562;28;20391;-76
2022/04/15 00:53:01;;;;;;;8.43;5.07;;;14.30;96.70;;;;;;5083128;28;20592;-75
2022/04/15 00:55:30;;;;;;;8.50;6.30;;;14.40;96.70;;;;;;5073033;28;20044;-75
2022/04/15 00:58:00;;;;;;;8.07;5.13;;;14.20;96.70;;;;;;5083296;28;20700;-76
2022/04/15 01:00:31;;;;;;;9.07;5.82;;;14.20;96.70;;;;;;5079793;28;20557;-76
2022/04/15 01:03:01;;;;;;;8.52;5.28;;;14.30;96.70;;;;;;5081071;28;20871;-75
2022/04/15 01:05:32;;;;;;;6.00;4.68;;;14.30;96.70;;;;;;5081216;28;20144;-76
2022/04/15 01:08:03;;;;;;;5.18;3.35;;;14.40;96.70;;;;;;5081915;28;20052;-76
2022/04/15 01:10:35;;;;;;;4.05;2.20;;;14.30;96.70;;;;;;5085125;28;20046;-76
2022/04/15 01:13:06;;;;;;;3.25;1.90;;;14.20;96.70;;;;;;5078856;28;20317;-76
2022/04/15 01:15:51;;;;;;;;;;;14.20;96.70;;;;;;5084476;28;20813;-76
2022/04/15 01:18:19;;;;;;;4.40;1.63;;;14.10;96.70;;;;;;5069711;28;19931;-76
2022/04/15 01:20:51;;;;;;;3.72;1.75;;;14.00;96.70;;;;;;5082953;28;20044;-76
2022/04/15 01:23:20;;;;;;;3.85;2.10;;;14.10;96.70;;;;;;5078370;28;20106;-76
2022/04/15 01:25:49;;;;;;;2.47;1.60;;;14.10;96.70;;;;;;5083748;28;20056;-76
2022/04/15 01:28:22;;;;;;;2.40;1.60;;;14.10;96.70;;;;;;5080280;28;20040;-76
2022/04/15 01:30:50;;;;;;;3.25;2.13;;;14.10;96.70;;;;;;5083735;28;20804;-76
2022/04/15 01:33:19;;;;;;;2.72;1.80;;;14.10;96.70;;;;;;5078424;28;20147;-76
2022/04/15 01:35:50;;;;;;;3.20;1.90;;;14.00;96.70;;;;;;5059344;28;20333;-76
2022/04/15 01:38:20;;;;;;;2.83;1.85;;;14.00;96.70;;;;;;5082186;28;20047;-76
2022/04/15 01:40:48;;;;;;;4.80;2.22;;;13.90;96.70;;;;;;5081867;28;20048;-77
2022/04/15 01:43:16;;;;;;;4.97;2.05;;;13.90;96.70;;;;;;5079328;28;20160;-76
2022/04/15 01:45:45;;;;;;;8.23;2.47;;;14.00;96.70;;;;;;5078456;28;20048;-76
2022/04/15 01:48:13;;;;;;;8.55;3.50;;;14.00;96.70;;;;;;5079698;28;20516;-76
2022/04/15 01:50:41;;;;;;;4.60;2.33;;;13.90;96.70;;;;;;5082069;28;20134;-75
2022/04/15 01:53:09;;;;;;;4.40;2.53;;;13.90;96.70;;;;;;5083646;28;20040;-76
2022/04/15 01:55:39;;;;;;;4.07;2.50;;;13.90;96.70;;;;;;5082091;28;20143;-76
2022/04/15 01:58:08;;;;;;;4.40;2.28;;;13.80;96.70;;;;;;5082998;28;20080;-76
2022/04/15 02:00:36;;;;;;;3.85;2.53;;;13.70;96.70;;;;;;5080701;28;20044;-76
2022/04/15 02:03:04;;;;;;;4.32;2.42;;;13.70;96.70;;;;;;5065578;28;20549;-76
2022/04/15 02:05:33;;;;;;;6.05;3.00;;;13.70;96.70;;;;;;5065096;28;20137;-76
2022/04/15 02:08:01;;;;;;;5.95;2.90;;;13.80;96.70;;;;;;5099646;28;20661;-75
2022/04/15 02:10:29;;;;;;;7.07;2.95;;;13.70;96.70;;;;;;5073385;28;20746;-75
2022/04/15 02:12:59;;;;;;;4.35;3.10;;;13.70;96.70;;;;;;5066084;28;20307;-76
2022/04/15 02:15:27;;;;;;;4.35;3.30;;;13.70;96.70;;;;;;5080322;28;20459;-76
2022/04/15 02:17:56;;;;;;;4.32;2.97;;;13.70;96.70;;;;;;5084234;28;20039;-76
2022/04/15 02:20:24;;;;;;;4.35;2.92;;;13.80;96.70;;;;;;5082452;28;20130;-76
2022/04/15 02:22:54;;;;;;;4.35;2.83;;;13.70;96.70;;;;;;5081800;28;20127;-76
2022/04/15 02:25:22;;;;;;;5.60;2.85;;;13.70;96.70;;;;;;5082890;28;20048;-75
2022/04/15 02:27:50;;;;;;;6.65;3.72;;;13.70;96.70;;;;;;5076441;28;20036;-76
2022/04/15 02:30:20;;;;;;;4.28;2.75;;;13.60;96.70;;;;;;5082609;28;20048;-76
2022/04/15 02:32:48;;;;;;;6.72;3.45;;;13.50;96.70;;;;;;5082383;28;20072;-76
2022/04/15 02:35:16;;;;;;;7.18;3.55;;;13.50;96.70;;;;;;5077560;28;20084;-75
2022/04/15 02:37:44;;;;;;;5.63;3.20;;;13.50;96.70;;;;;;5076546;28;20040;-76
2022/04/15 02:40:12;;;;;;;4.35;2.92;;;13.50;96.70;;;;;;5064531;28;20739;-75
2022/04/15 02:42:40;;;;;;;3.75;2.65;;;13.40;96.70;;;;;;5065430;28;20044;-79
2022/04/15 02:45:09;;;;;;;4.20;2.53;;;13.40;96.70;;;;;;5100140;28;20043;-79
2022/04/15 02:47:39;;;;;;;4.18;2.65;;;13.40;96.70;;;;;;5085150;28;20089;-79
2022/04/15 02:50:08;;;;;;;3.35;2.65;;;13.40;96.70;;;;;;5083118;28;20052;-79
2022/04/15 02:52:36;;;;;;;4.65;2.30;;;13.30;96.70;;;;;;5079696;28;20040;-79
2022/04/15 02:55:05;;;;;;;3.13;2.10;;;13.30;96.70;;;;;;5079525;28;20043;-79
2022/04/15 02:57:33;;;;;;;4.05;2.60;;;13.30;96.70;;;;;;5082705;28;20052;-79
2022/04/15 03:00:01;;;;;;;6.63;3.25;;;13.30;96.70;;;;;;5077855;28;20040;-79
2022/04/15 03:02:32;;;;;;;3.45;2.50;;;13.30;96.70;;;;;;5075891;28;20146;-79
2022/04/15 03:05:03;;;;;;;4.63;2.72;;;13.30;96.70;;;;;;5082847;28;20561;-79
2022/04/15 03:07:31;;;;;;;3.97;2.40;;;13.30;96.70;;;;;;5073144;28;20059;-79
2022/04/15 03:09:59;;;;;;;5.07;2.80;;;13.20;96.70;;;;;;5080091;28;20167;-79
2022/04/15 03:12:27;;;;;;;3.13;2.13;;;13.20;96.70;;;;;;5074764;28;20098;-79
2022/04/15 03:14:55;;;;;;;5.97;2.70;;;13.20;96.70;;;;;;5080494;28;20036;-79
2022/04/15 03:17:23;;;;;;;6.95;2.80;;;13.20;96.70;;;;;;5066858;28;20067;-79
2022/04/15 03:19:51;;;;;;;5.10;2.47;;;13.30;96.70;;;;;;5085531;28;20131;-80
2022/04/15 03:22:20;;;;;;;2.90;1.80;;;13.10;96.70;;;;;;5084876;28;20113;-79
2022/04/15 03:24:50;;;;;;;3.25;1.85;;;13.10;96.70;;;;;;5083172;28;20067;-79
2022/04/15 03:27:18;;;;;;;2.40;1.70;;;13.00;96.70;;;;;;5092591;28;20051;-79
2022/04/15 03:29:46;;;;;;;2.80;1.60;;;13.10;96.70;;;;;;5079336;28;20105;-79
2022/04/15 03:32:14;;;;;;;6.53;1.63;;;13.00;96.70;;;;;;5080528;28;20074;-80
2022/04/15 03:34:42;;;;;;;2.85;1.67;;;13.00;96.70;;;;;;5079018;28;20109;-75
2022/04/15 03:37:10;;;;;;;2.53;1.80;;;12.90;96.70;;;;;;5064981;28;20044;-79
2022/04/15 03:39:40;;;;;;;3.47;1.73;;;12.90;96.70;;;;;;5082049;28;20775;-79
2022/04/15 03:42:08;;;;;;;5.50;1.70;;;13.00;96.70;;;;;;5076219;28;20135;-79
2022/04/15 03:44:36;;;;;;;2.78;1.80;;;12.90;96.70;;;;;;5068307;28;20098;-79
2022/04/15 03:47:05;;;;;;;3.38;1.75;;;12.90;96.70;;;;;;5081413;28;20135;-79
2022/04/15 03:49:34;;;;;;;4.65;1.90;;;12.80;96.70;;;;;;5080972;28;20051;-78
2022/04/15 03:52:02;;;;;;;4.75;1.60;;;12.80;96.70;;;;;;5083384;28;20048;-79
2022/04/15 03:54:30;;;;;;;2.97;1.35;;;12.70;96.70;;;;;;5085199;28;20067;-78
2022/04/15 03:57:00;;;;;;;3.83;1.73;;;12.70;96.70;;;;;;5080383;28;20071;-79
2022/04/15 03:59:28;;;;;;;4.38;1.40;;;12.80;96.70;;;;;;5075438;28;20509;-78
2022/04/15 04:01:56;;;;;;;4.18;1.65;;;12.90;96.70;;;;;;5075121;28;20048;-79
2022/04/15 04:04:24;;;;;;;4.35;1.90;;;12.80;96.70;;;;;;5083413;28;20048;-79
2022/04/15 04:06:52;;;;;;;3.38;1.98;;;12.80;96.70;;;;;;5086494;28;20605;-79
2022/04/15 04:09:24;;;;;;;2.45;1.95;;;12.80;96.70;;;;;;5087729;28;20044;-79
2022/04/15 04:11:53;;;;;;;3.95;1.83;;;12.80;96.70;;;;;;5087266;28;20043;-79
2022/04/15 04:14:25;;;;;;;3.45;2.10;;;12.70;96.70;;;;;;5087008;28;20079;-79
2022/04/15 04:16:53;;;;;;;4.95;2.40;;;12.80;96.70;;;;;;5080798;28;20044;-79
2022/04/15 04:19:20;;;;;;;4.40;2.33;;;12.80;96.70;;;;;;5067180;28;20044;-79
2022/04/15 04:21:48;;;;;;;4.40;2.05;;;12.80;96.70;;;;;;5086429;28;20860;-80
2022/04/15 04:24:17;;;;;;;4.63;2.42;;;12.70;96.70;;;;;;5087254;28;20052;-79
2022/04/15 04:26:44;;;;;;;6.53;2.63;;;12.70;96.70;;;;;;5063501;28;20094;-79
2022/04/15 04:29:12;;;;;;;4.38;2.63;;;12.70;96.70;;;;;;5087695;28;20046;-81
2022/04/15 04:31:42;;;;;;;5.85;2.60;;;12.60;96.70;;;;;;5080695;28;20040;-80
2022/04/15 04:34:10;;;;;;;5.30;2.67;;;12.50;96.70;;;;;;5087547;28;20051;-80
2022/04/15 04:36:38;;;;;;;6.65;2.80;;;12.50;96.70;;;;;;5079656;28;20068;-80
2022/04/15 04:39:10;;;;;;;6.38;2.50;;;12.50;96.70;;;;;;5064832;28;20056;-80
2022/04/15 04:41:39;;;;;;;5.78;2.70;;;12.40;96.70;;;;;;5086892;28;20048;-81
2022/04/15 04:44:08;;;;;;;5.70;3.22;;;12.30;96.70;;;;;;5087168;28;20056;-81
2022/04/15 04:46:36;;;;;;;9.20;2.83;;;12.40;96.70;;;;;;5081949;28;20370;-80
2022/04/15 04:49:06;;;;;;;5.38;2.97;;;12.20;96.70;;;;;;5086433;28;20043;-80
2022/04/15 04:51:34;;;;;;;7.15;2.70;;;12.20;96.70;;;;;;5095880;28;20099;-80
2022/04/15 04:54:02;;;;;;;5.20;2.85;;;12.30;96.70;;;;;;5070802;28;20044;-80
2022/04/15 04:56:31;;;;;;;5.97;2.58;;;12.30;96.70;;;;;;5078404;28;20063;-80
2022/04/15 04:58:59;;;;;;;2.80;2.20;;;12.40;96.70;;;;;;5086475;28;20056;-80
2022/04/15 05:01:27;;;;;;;5.00;2.30;;;12.20;96.70;;;;;;5067003;28;20055;-80
2022/04/15 05:03:55;;;;;;;3.20;2.50;;;12.20;96.70;;;;;;5103519;28;20134;-80
2022/04/15 05:06:25;;;;;;;3.33;2.30;;;12.20;96.70;;;;;;5087202;28;20048;-80
2022/04/15 05:08:52;;;;;;;6.40;2.80;;;12.20;96.70;;;;;;5081497;28;20048;-80
2022/04/15 05:11:20;;;;;;;8.75;2.85;;;12.20;96.70;;;;;;5072915;28;20105;-80
2022/04/15 05:13:50;;;;;;;7.30;3.53;;;12.30;96.70;;;;;;5082075;28;20126;-80
2022/04/15 05:16:18;;;;;;;4.80;3.28;;;12.20;96.70;;;;;;5083899;28;20051;-80
2022/04/15 05:18:46;;;;;;;6.93;3.50;;;12.20;96.70;;;;;;5086587;28;20080;-80
2022/04/15 05:21:14;;;;;;;7.13;4.10;;;12.20;96.70;;;;;;5079991;28;20131;-80
2022/04/15 05:23:45;;;;;;;8.93;4.95;;;12.20;96.70;;;;;;5088543;28;20068;-81
2022/04/15 05:26:14;;;;;;;8.88;4.90;;;12.30;96.70;;;;;;5082278;28;20044;-80
2022/04/15 05:28:42;;;;;;;7.90;5.00;;;12.30;96.70;;;;;;5070023;28;20048;-80
2022/04/15 05:31:10;;;;;;;10.25;5.68;;;12.30;96.70;;;;;;5059979;28;20520;-80
2022/04/15 05:33:38;;;;;;;7.57;5.85;;;12.30;96.70;;;;;;5075083;28;20044;-80
2022/04/15 05:36:06;;;;;;;8.02;5.95;;;12.40;96.70;;;;;;5088300;28;20383;-80
2022/04/15 05:38:34;;;;;;;11.88;6.82;;;12.50;96.70;;;;;;5078482;28;20039;-80
2022/04/15 05:41:06;;;;;;;9.25;6.72;;;12.70;96.70;;;;;;5086307;28;20063;-80
2022/04/15 05:43:34;;;;;;;17.45;8.25;;;12.70;96.70;;;;;;5077677;28;20051;-80
2022/04/15 05:46:02;;;;;;;12.02;8.73;;;12.70;96.70;;;;;;5066263;28;20055;-80
2022/04/15 05:48:30;;;;;;;12.52;7.47;;;12.70;96.70;;;;;;5083924;28;20495;-80
2022/04/15 05:50:58;;;;;;;12.02;7.43;;;12.70;96.70;;;;;;5078615;28;20413;-80
2022/04/15 05:53:26;;;;;;;13.07;7.35;;;12.70;96.70;;;;;;5072167;28;20712;-80
2022/04/15 05:55:55;;;;;;;11.52;7.00;;;12.60;96.70;;;;;;5102842;28;20055;-80
2022/04/15 05:58:25;;;;;;;12.88;7.95;;;12.70;96.70;;;;;;5077278;28;20056;-80
2022/04/15 06:00:54;;;;;;;17.73;9.68;;;12.70;96.70;;;;;;5086232;28;20035;-80
2022/04/15 06:03:22;;;;;;;17.48;10.57;;;12.70;96.70;;;;;;5073439;28;20100;-80
2022/04/15 06:05:51;;;;;;;17.50;11.00;;;12.60;96.70;;;;;;5084997;28;20047;-80
2022/04/15 06:08:19;;;;;;;16.52;9.43;;;12.50;96.70;;;;;;5077680;28;20094;-80
2022/04/15 06:10:46;;;;;;;15.73;8.98;;;12.80;96.70;;;;;;5086094;28;20059;-80
2022/04/15 06:13:22;;;;;;;19.00;9.07;;;12.80;96.70;;;;;;5085713;28;20052;-80
2022/04/15 06:16:01;;;;;;;16.77;8.98;;;12.90;96.70;;;;;;5068318;28;20048;-80
2022/04/15 06:18:34;;;;;;;15.00;8.10;;;12.90;96.70;;;;;;5081599;28;20187;-80
2022/04/15 06:21:04;;;;;;;13.00;8.30;;;13.00;96.70;;;;;;5085876;28;20047;-80
2022/04/15 06:23:32;;;;;;;13.02;8.07;;;13.20;96.70;;;;;;5086226;28;20808;-81
2022/04/15 06:26:00;;;;;;;14.38;8.35;;;13.30;96.70;;;;;;5076647;28;20037;-80
2022/04/15 06:28:28;;;;;;;19.05;10.02;;;13.20;96.70;;;;;;5072527;28;20075;-80
2022/04/15 06:30:58;;;;;;;15.88;10.00;;;13.20;96.70;;;;;;5078007;28;20101;-80
2022/04/15 06:33:26;;;;;;;32.22;17.98;;;13.20;96.70;;;;;;5085661;28;20394;-80
2022/04/15 06:35:55;;;;;;;100.05;60.35;;;13.30;96.70;;;;;;5076275;28;20048;-80
2022/04/15 06:38:23;;;;;;;75.03;46.35;;;13.30;96.70;;;;;;5075939;28;20040;-80
2022/04/15 06:40:51;;;;;;;66.00;40.60;;;13.30;96.70;;;;;;5086998;28;20044;-80
2022/04/15 06:43:19;;;;;;;69.22;39.95;;;13.40;96.70;;;;;;5085971;28;20136;-80
2022/04/15 06:45:47;;;;;;;63.08;39.50;;;13.50;96.70;;;;;;5075456;28;20047;-80
2022/04/15 06:48:16;;;;;;;61.67;37.85;;;13.50;96.70;;;;;;5085388;28;20086;-80
2022/04/15 06:50:44;;;;;;;58.40;35.47;;;13.60;96.70;;;;;;5080601;28;20136;-81
2022/04/15 06:53:12;;;;;;;57.88;31.33;;;13.70;96.70;;;;;;5066632;28;20144;-80
2022/04/15 06:55:40;;;;;;;46.30;28.33;;;13.70;96.70;;;;;;5085146;28;20044;-80
2022/04/15 06:58:08;;;;;;;53.47;32.95;;;13.80;96.70;;;;;;5078775;28;20056;-80
2022/04/15 07:00:36;;;;;;;62.63;37.05;;;13.90;96.70;;;;;;5082490;28;20040;-80
2022/04/15 07:03:04;;;;;;;105.97;64.97;;;14.00;96.70;;;;;;5067542;28;20044;-80
2022/04/15 07:05:34;;;;;;;89.15;54.05;;;14.00;96.70;;;;;;5078572;28;20052;-80
2022/04/15 07:08:05;;;;;;;75.28;45.60;;;14.10;96.70;;;;;;5087363;28;20054;-81
2022/04/15 07:10:34;;;;;;;84.05;46.15;;;14.20;96.70;;;;;;5081809;28;20133;-81
2022/04/15 07:13:02;;;;;;;84.20;49.33;;;14.30;96.70;;;;;;5080605;28;20036;-83
2022/04/15 07:15:30;;;;;;;92.80;53.85;;;14.40;96.70;;;;;;5070399;28;20493;-83
2022/04/15 07:18:03;;;;;;;90.47;53.25;;;14.40;96.70;;;;;;5088349;28;20048;-84
2022/04/15 07:20:33;;;;;;;75.78;46.42;;;14.40;96.70;;;;;;5069713;28;20052;-81
2022/04/15 07:23:02;;;;;;;74.47;45.80;;;14.50;96.70;;;;;;5085495;28;20048;-82
2022/04/15 07:25:30;;;;;;;67.78;43.72;;;14.60;96.70;;;;;;5087637;28;20561;-82
2022/04/15 07:28:00;;;;;;;66.40;42.17;;;14.60;96.70;;;;;;5087011;28;20254;-82
2022/04/15 07:30:29;;;;;;;75.15;42.55;;;14.70;96.70;;;;;;5067493;28;20048;-83
2022/04/15 07:32:59;;;;;;;63.92;39.90;;;14.70;96.70;;;;;;5085769;28;20398;-80
2022/04/15 07:35:28;;;;;;;73.55;44.03;;;14.80;96.70;;;;;;5083631;28;20043;-79
2022/04/15 07:37:57;;;;;;;96.05;56.90;;;14.90;96.70;;;;;;5082972;28;20584;-80
2022/04/15 07:40:28;;;;;;;107.07;63.55;;;15.00;96.70;;;;;;5076965;28;20056;-79
2022/04/15 07:42:59;;;;;;;107.35;65.32;;;15.10;96.70;;;;;;5062179;28;20048;-79
2022/04/15 07:45:27;;;;;;;106.10;65.68;;;15.20;96.70;;;;;;5089681;28;20048;-79
2022/04/15 07:47:55;;;;;;;77.88;49.00;;;15.30;96.70;;;;;;5086897;28;20036;-79
2022/04/15 07:50:25;;;;;;;60.88;37.72;;;15.40;96.70;;;;;;5087471;28;20569;-79
2022/04/15 07:52:59;;;;;;;51.70;33.70;;;15.50;96.70;;;;;;5087991;28;20066;-78
2022/04/15 07:55:27;;;;;;;51.35;31.33;;;15.60;96.70;;;;;;5085569;28;20047;-79
2022/04/15 07:57:56;;;;;;;49.22;32.13;;;15.70;96.70;;;;;;5069915;28;20791;-80
2022/04/15 08:00:24;;;;;;;60.88;37.95;;;15.90;96.70;;;;;;5087788;28;20533;-83
2022/04/15 08:02:52;;;;;;;60.05;35.22;;;16.00;96.70;;;;;;5080669;28;20094;-81
2022/04/15 08:05:20;;;;;;;46.13;29.52;;;16.10;96.70;;;;;;5089205;28;20054;-81
2022/04/15 08:07:50;;;;;;;47.58;29.80;;;16.30;96.70;;;;;;5072317;28;20050;-80
2022/04/15 08:10:19;;;;;;;46.78;28.58;;;16.40;96.70;;;;;;5080209;28;20044;-80
2022/04/15 08:12:49;;;;;;;48.00;29.95;;;16.40;96.70;;;;;;5082905;28;20106;-81
2022/04/15 08:15:17;;;;;;;55.83;33.47;;;16.50;96.70;;;;;;5088414;28;20506;-81
2022/04/15 08:17:45;;;;;;;54.80;32.40;;;16.60;96.70;;;;;;5067355;28;20041;-80
2022/04/15 08:20:14;;;;;;;44.47;29.42;;;16.80;96.70;;;;;;5088161;28;20082;-81
2022/04/15 08:22:42;;;;;;;49.58;29.58;;;16.90;96.70;;;;;;5082113;28;20048;-80
2022/04/15 08:25:10;;;;;;;59.40;39.08;;;17.00;96.70;;;;;;5070978;28;20051;-81
2022/04/15 08:27:39;;;;;;;32.85;21.38;;;17.20;96.70;;;;;;5086607;28;20761;-81
2022/04/15 08:30:08;;;;;;;34.42;20.52;;;17.30;96.70;;;;;;5060850;28;20466;-80
2022/04/15 08:32:36;;;;;;;32.45;18.83;;;17.40;96.70;;;;;;5086837;28;20094;-80
2022/04/15 08:35:11;;;;;;;26.85;14.25;;;17.40;96.70;;;;;;5087415;28;20047;-83
2022/04/15 08:37:40;;;;;;;22.42;12.40;;;17.50;96.70;;;;;;5088423;28;20111;-84
2022/04/15 08:40:11;;;;;;;13.32;7.22;;;17.70;96.70;;;;;;5089065;28;20036;-83
2022/04/15 08:42:42;;;;;;;13.30;6.88;;;17.80;96.70;;;;;;5081538;28;20036;-83
2022/04/15 08:45:12;;;;;;;21.23;11.70;;;18.00;96.70;;;;;;5086181;28;20131;-83
2022/04/15 08:47:41;;;;;;;14.82;7.22;;;18.20;96.70;;;;;;5090466;28;20143;-83
2022/04/15 08:50:10;;;;;;;10.40;4.78;;;18.30;96.70;;;;;;5088418;28;20512;-83
2022/04/15 08:52:39;;;;;;;12.18;6.70;;;18.40;96.70;;;;;;5086498;28;20044;-83
2022/04/15 08:55:08;;;;;;;16.33;10.02;;;18.40;96.70;;;;;;5088474;28;20063;-84
2022/04/15 08:57:38;;;;;;;7.63;4.85;;;18.60;96.70;;;;;;5076935;28;20044;-83
2022/04/15 09:00:10;;;;;;;10.85;6.03;;;18.70;96.70;;;;;;5069428;28;20089;-83
2022/04/15 09:02:38;;;;;;;18.90;9.65;;;18.70;96.70;;;;;;5078713;28;20149;-83
2022/04/15 09:05:12;;;;;;;11.60;6.25;;;18.70;96.70;;;;;;5084316;28;20078;-83
2022/04/15 09:07:40;;;;;;;6.72;4.65;;;18.90;96.70;;;;;;5082662;28;20497;-83
2022/04/15 09:10:11;;;;;;;9.00;4.97;;;19.00;96.70;;;;;;5065915;28;20063;-80
2022/04/15 09:12:40;;;;;;;9.55;5.35;;;19.10;96.70;;;;;;5067450;28;20052;-80
2022/04/15 09:15:14;;;;;;;9.57;5.80;;;19.30;96.70;;;;;;5082444;28;20502;-80
2022/04/15 09:17:54;;;;;;;11.00;5.53;;;19.40;96.70;;;;;;5084912;28;20559;-80
2022/04/15 09:20:23;;;;;;;9.98;5.78;;;19.60;96.70;;;;;;5083979;28;20047;-81
2022/04/15 09:22:55;;;;;;;16.85;9.10;;;19.70;96.70;;;;;;5076009;28;20220;-82
2022/04/15 09:25:27;;;;;;;12.07;7.07;;;19.70;96.70;;;;;;5086788;28;20518;-83
2022/04/15 09:27:56;;;;;;;10.80;7.03;;;19.70;95.40;;;;;;5083072;28;20040;-82
2022/04/15 09:30:39;;;;;;;9.23;5.43;;;19.70;95.60;;;;;;5086129;28;20090;-80
2022/04/15 09:33:10;;;;;;;13.00;6.50;;;19.80;95.00;;;;;;5076837;28;20470;-80
2022/04/15 09:35:45;;;;;;;12.93;6.47;;;20.00;94.70;;;;;;5077111;28;20083;-79
2022/04/15 09:38:13;;;;;;;8.80;4.93;;;20.00;94.40;;;;;;5079443;28;20140;-79
2022/04/15 09:40:41;;;;;;;6.78;4.00;;;20.20;96.40;;;;;;5083018;28;20051;-80
2022/04/15 09:43:10;;;;;;;8.50;5.28;;;20.30;95.70;;;;;;5081795;28;20144;-79
2022/04/15 09:45:40;;;;;;;10.10;5.43;;;20.40;93.10;;;;;;5083466;28;20143;-80
2022/04/15 09:48:12;;;;;;;10.98;5.68;;;20.50;94.90;;;;;;5084144;28;20073;-79
2022/04/15 09:50:42;;;;;;;7.25;4.47;;;20.60;94.30;;;;;;5084355;28;20129;-80
2022/04/15 09:53:12;;;;;;;5.85;3.97;;;20.60;92.30;;;;;;5078105;28;20051;-81
2022/04/15 09:55:41;;;;;;;7.72;4.32;;;20.70;92.10;;;;;;5084736;28;20139;-80
2022/04/15 09:58:11;;;;;;;8.30;4.07;;;20.90;92.40;;;;;;5092909;28;20132;-80
2022/04/15 10:00:43;;;;;;;6.20;3.72;;;21.00;92.00;;;;;;5066533;28;20831;-80
2022/04/15 10:03:12;;;;;;;6.78;3.58;;;21.10;91.80;;;;;;5079366;28;20052;-79
2022/04/15 10:05:42;;;;;;;6.40;3.28;;;21.10;90.80;;;;;;5082283;28;20054;-78
2022/04/15 10:08:11;;;;;;;7.07;3.00;;;21.30;89.80;;;;;;5079101;28;20036;-78
2022/04/15 10:10:39;;;;;;;5.65;2.83;;;21.50;89.10;;;;;;5077987;28;20064;-77
2022/04/15 10:13:07;;;;;;;6.95;3.65;;;21.60;89.20;;;;;;5064515;28;20105;-78
2022/04/15 10:15:37;;;;;;;5.95;2.85;;;21.70;88.80;;;;;;5083686;28;20068;-80
2022/04/15 10:18:08;;;;;;;5.50;2.58;;;21.80;89.50;;;;;;5074279;28;20052;-79
2022/04/15 10:20:39;;;;;;;4.60;2.55;;;21.80;88.00;;;;;;5083472;28;20505;-78
2022/04/15 10:23:09;;;;;;;3.90;2.40;;;21.90;87.80;;;;;;5083544;28;20048;-79
2022/04/15 10:25:39;;;;;;;5.05;1.92;;;21.90;87.60;;;;;;5080172;28;20044;-79
2022/04/15 10:28:07;;;;;;;4.78;2.42;;;22.00;86.40;;;;;;5065819;28;20048;-80
2022/04/15 10:30:38;;;;;;;5.75;2.22;;;22.20;86.40;;;;;;5065131;28;20043;-77
2022/04/15 10:33:09;;;;;;;5.10;2.33;;;22.40;85.90;;;;;;5081765;28;20036;-77
2022/04/15 10:35:37;;;;;;;4.30;2.60;;;22.40;85.90;;;;;;5079687;28;20505;-78
2022/04/15 10:38:11;;;;;;;3.97;2.03;;;22.60;85.10;;;;;;5082293;28;20040;-79
2022/04/15 10:40:43;;;;;;;3.10;1.92;;;22.60;85.00;;;;;;5079435;28;20039;-81
2022/04/15 10:43:20;;;;;;;4.13;1.95;;;22.70;85.40;;;;;;5075508;28;20503;-81
2022/04/15 10:45:51;;;;;;;4.85;2.00;;;22.80;86.50;;;;;;5082051;28;20133;-84
2022/04/15 10:48:31;;;;;;;5.22;2.20;;;22.90;84.90;;;;;;5083397;28;20130;-80
2022/04/15 10:51:21;;;;;;;3.42;2.30;;;22.90;83.30;;;;;;5064708;28;20072;-80
2022/04/15 10:53:49;;;;;;;5.20;2.60;;;23.00;82.60;;;;;;5079790;28;20517;-80
2022/04/15 10:56:18;;;;;;;3.47;1.80;;;23.10;82.40;;;;;;5077396;28;20032;-79
2022/04/15 11:01:53;;;;;;;4.38;1.65;;;23.30;82.90;;;;;;5081985;28;20545;-80
2022/04/15 11:04:26;;;;;;;4.32;2.13;;;23.50;83.40;;;;;;5081887;28;20042;-80
2022/04/15 11:06:55;;;;;;;2.63;1.75;;;23.90;82.90;;;;;;5081319;28;20055;-80
2022/04/15 11:09:24;;;;;;;3.65;1.45;;;23.90;81.50;;;;;;5062721;28;20479;-80
2022/04/15 11:11:53;;;;;;;5.40;1.88;;;24.00;80.50;;;;;;5076364;28;20047;-80
2022/04/15 11:14:34;;;;;;;1.95;1.30;;;24.20;79.50;;;;;;5076884;28;20553;-79
2022/04/15 11:17:07;;;;;;;3.38;1.55;;;24.40;79.80;;;;;;5065060;28;20101;-79
2022/04/15 11:19:39;;;;;;;3.60;1.60;;;24.60;79.70;;;;;;5082229;28;20521;-79
2022/04/15 11:22:08;;;;;;;3.35;1.85;;;24.80;79.40;;;;;;5078384;28;20040;-80
2022/04/15 11:24:38;;;;;;;3.03;1.70;;;24.90;78.60;;;;;;5078468;28;20604;-80
2022/04/15 11:27:14;;;;;;;4.78;1.77;;;24.90;77.90;;;;;;5082085;28;20608;-80
2022/04/15 11:29:47;;;;;;;3.55;1.75;;;25.00;79.10;;;;;;5080577;28;20051;-79
2022/04/15 11:32:15;;;;;;;2.13;1.58;;;25.10;77.50;;;;;;5073207;28;20040;-79
2022/04/15 11:34:45;;;;;;;2.60;1.35;;;25.10;74.70;;;;;;5080917;28;20036;-79
2022/04/15 11:37:13;;;;;;;5.45;1.50;;;25.20;75.10;;;;;;5080335;28;20491;-80
2022/04/15 11:39:46;;;;;;;2.60;1.20;;;25.30;76.20;;;;;;5063453;28;20036;-79
2022/04/15 11:42:17;;;;;;;1.98;1.55;;;25.40;72.70;;;;;;5079303;28;20040;-80
2022/04/15 11:44:45;;;;;;;1.92;1.15;;;25.40;73.60;;;;;;5081467;28;20697;-80
2022/04/15 11:47:18;;;;;;;2.75;1.15;;;25.50;72.20;;;;;;5081109;28;20043;-78
2022/04/15 11:49:52;;;;;;;1.67;1.10;;;25.60;72.60;;;;;;5079879;28;20044;-80
2022/04/15 11:52:23;;;;;;;1.85;1.00;;;25.70;72.40;;;;;;5060890;28;20053;-80
2022/04/15 11:54:51;;;;;;;2.28;1.25;;;25.80;72.30;;;;;;5081816;28;20052;-79
2022/04/15 11:57:19;;;;;;;2.00;1.02;;;25.90;71.60;;;;;;5078009;28;20045;-80
2022/04/15 11:59:48;;;;;;;3.03;0.90;;;26.00;70.90;;;;;;5068769;28;20094;-78
2022/04/15 12:02:18;;;;;;;1.50;0.82;;;26.10;70.40;;;;;;5081863;28;20143;-78
2022/04/15 12:04:52;;;;;;;2.50;1.20;;;26.30;70.20;;;;;;5058892;28;20056;-77
2022/04/15 12:07:21;;;;;;;2.70;1.20;;;25.90;70.00;;;;;;5075467;28;20491;-77
2022/04/15 12:09:50;;;;;;;2.38;1.13;;;25.80;70.70;;;;;;5081368;28;20044;-78
2022/04/15 12:12:19;;;;;;;3.28;1.20;;;25.90;68.90;;;;;;5073857;28;20700;-78
2022/04/15 12:14:50;;;;;;;3.92;1.45;;;25.90;70.10;;;;;;5081116;28;20050;-77
2022/04/15 12:17:20;;;;;;;3.72;1.40;;;25.90;69.90;;;;;;5075618;28;20049;-76
2022/04/15 12:19:48;;;;;;;4.07;1.52;;;26.10;70.70;;;;;;5081491;28;20418;-77
2022/04/15 12:22:19;;;;;;;2.53;1.20;;;26.30;71.50;;;;;;5076600;28;20482;-77
2022/04/15 12:24:47;;;;;;;4.25;1.42;;;26.50;71.70;;;;;;5074992;28;20032;-80
2022/04/15 12:27:17;;;;;;;2.58;1.08;;;26.20;70.70;;;;;;5079267;28;20508;-78
2022/04/15 12:29:47;;;;;;;2.15;1.17;;;26.00;70.10;;;;;;5076666;28;20059;-77
2022/04/15 12:32:24;;;;;;;2.67;1.30;;;26.20;71.40;;;;;;5083050;28;20055;-78
2022/04/15 12:35:10;;;;;;;2.83;0.98;;;26.20;70.80;;;;;;5085968;28;20055;-78
2022/04/15 12:37:42;;;;;;;2.03;1.10;;;26.30;71.10;;;;;;5083597;28;20149;-78
2022/04/15 12:40:30;;;;;;;2.05;1.25;;;26.20;71.20;;;;;;5081797;28;20457;-78
2022/04/15 12:43:10;;;;;;;1.85;1.02;;;26.20;68.60;;;;;;5080797;28;20123;-78
2022/04/15 12:45:49;;;;;;;3.15;1.08;;;26.60;67.90;;;;;;5080254;28;20067;-78
2022/04/15 12:48:17;;;;;;;3.38;0.90;;;26.60;68.70;;;;;;5084113;28;20413;-79
2022/04/15 12:50:46;;;;;;;3.72;1.20;;;26.50;69.10;;;;;;5085166;28;20040;-77
2022/04/15 12:53:17;;;;;;;2.95;1.00;;;26.50;70.10;;;;;;5084519;28;20522;-78
2022/04/15 12:55:46;;;;;;;1.92;0.80;;;26.80;70.10;;;;;;5067396;28;20056;-78
2022/04/15 12:58:20;;;;;;;2.38;0.95;;;26.90;69.90;;;;;;5066767;28;20052;-78